Station: Gudgenby  

  Atmospheric Gas Attenuation - ITU Rec 676-11   ----------------- dB/100km -----------------
Date Time Temp RH % AH g/m3 Dew Point Wind Direction Speed kph Gust kph Barometer mB Rainfall Since 9am 24GHz 47GHz 76GHz 122GHz 134GHz 241GHz
02/09 19:00 13.5 60 7.02 5.9 15 26 1013.1 0 16.2 23.5 33.8 88.3 78.4 268.5
02/09 18:30 13.5 60 7.02 5.9 19 24 1013.1 0 16.2 23.5 33.8 88.3 78.4 268.5
02/09 18:00 13.4 61 7.09 6.1 17 22 1013.1 0 16.4 23.6 34.1 89.2 79.4 271.9
02/09 17:30 13.7 58 6.87 5.7 19 22 1013.1 0 15.9 23.2 33.1 86.6 76.4 261.3
02/09 17:00 14.1 56 6.8 5.5 22 28 1013.1 0 15.7 23.0 32.7 85.5 75.1 256.9
02/09 16:30 15.1 53 6.84 5.8 20 24 1013.1 0 15.8 22.8 32.4 84.8 74.7 255.5
02/09 16:00 15.4 50 6.57 5.1 24 35 1013.1 0 15.2 22.3 31.3 81.9 71.1 243.1
02/09 15:30 15.2 53 6.88 5.8 20 26 1013.1 0 15.9 22.8 32.5 85.1 75.0 256.8
02/09 15:00 15.5 51 6.74 5.5 13 19 1013.1 0 15.6 22.6 31.9 83.4 73.1 250.0
02/09 14:30 15.4 49 6.44 4.9 24 33 1013.1 0 14.9 22.1 30.9 80.6 69.6 237.7
02/09 14:00 15.4 47 6.17 4.1 19 22 1013.1 0 14.4 21.7 29.9 78.0 66.4 226.4
02/09 13:30 15.2 49 6.36 4.6 17 24 1013.1 0 14.8 22.1 30.7 80.0 68.8 234.9
02/09 13:00 15.5 51 6.74 5.4 9 17 1013.1 0 15.6 22.6 31.9 83.4 73.1 250.0
02/09 12:30 15.8 49 6.6 5.2 19 24 1013.1 0 15.3 22.3 31.3 81.7 71.1 243.2
02/09 12:00 15.4 49 6.44 4.9 15 22 1013.1 0 14.9 22.1 30.9 80.6 69.6 237.7
02/09 11:30 14.8 51 6.46 4.9 15 28 1013.1 0 15.0 22.3 31.2 81.4 70.3 240.3
02/09 11:00 14.6 54 6.76 5.5 15 22 1013.1 0 15.6 22.8 32.3 84.5 74.2 253.6
02/09 10:30 14.2 55 6.72 5.3 24 35 1013.1 0 15.6 22.9 32.4 84.6 74.0 253.2
02/09 10:00 14.3 55 6.76 5.4 7 15 1013.1 0 15.6 22.9 32.5 84.9 74.4 254.6
02/09 09:30 14.3 54 6.63 5.2 19 33 1013.1 0 15.4 22.7 32.0 83.6 72.8 249.0
02/09 09:00 15.5 48 6.34 4.6 9 13 1013.1 0 14.7 22.0 30.5 79.5 68.3 233.2
02/09 08:30 15 49 6.28 4.4 13 15 1013.1 0 14.6 22.0 30.4 79.5 68.0 232.2
02/09 08:00 14.3 51 6.27 4.3 11 17 1013.1 0 14.6 22.2 30.7 80.1 68.5 233.8
02/09 07:30 13.8 54 6.43 4.7 7 17 1013.1 0 15.0 22.5 31.4 82.1 70.9 242.0
02/09 07:00 12.6 58 6.42 4.5 13 19 1013.1 0 15.0 22.8 31.9 83.3 71.8 245.2
02/09 06:30 11.5 62 6.4 4.5 9 13 1013.1 0 15.0 23.0 32.2 84.2 72.6 247.7
02/09 06:00 11.3 64 6.53 4.7 6 7 1013.1 0 15.3 23.3 32.8 85.8 74.4 254.1
02/09 05:30 11.2 64 6.49 4.7 9 19 1013.1 0 15.2 23.3 32.7 85.5 74.0 252.7
02/09 05:00 11.3 63 6.43 4.6 9 17 1013.1 0 15.1 23.1 32.4 84.7 73.1 249.7
02/09 04:00 11.2 63 6.39 4.4 17 22 1013.1 0 15.0 23.1 32.3 84.4 72.7 248.2
02/09 03:30 10.9 66 6.57 4.8 15 17 1013.1 0 15.4 23.5 33.1 86.6 75.3 257.2
02/09 03:00 11.3 64 6.53 4.7 24 33 1013.1 0 15.3 23.3 32.8 85.8 74.4 254.1
02/09 02:30 11.4 65 6.67 5.2 19 39 1013.1 0 15.6 23.5 33.3 87.1 76.1 260.0
02/09 02:00 11.1 65 6.55 4.9 24 28 1013.1 0 15.3 23.4 33.0 86.2 74.9 255.6
02/09 01:30 11.3 62 6.33 4.3 15 19 1013.1 0 14.9 23.0 32.0 83.7 71.9 245.3
02/09 01:00 11 66 6.61 4.9 22 24 1013.1 0 15.5 23.5 33.2 86.9 75.7 258.6
02/09 00:30 11 66 6.61 4.9 17 24 1013.1 0 15.5 23.5 33.2 86.9 75.7 258.6
02/09 00:00 11.5 62 6.4 4.5 11 13 1013.1 0 15.0 23.0 32.2 84.2 72.6 247.7
01/09 23:30 11.2 64 6.49 4.7 13 15 1013.1 0 15.2 23.3 32.7 85.5 74.0 252.7
01/09 23:00 11.2 68 6.89 5.5 11 15 1013.1 0 16.0 23.9 34.2 89.6 79.1 270.5
01/09 22:30 11.4 69 7.08 5.9 15 19 1013.1 0 16.4 24.1 34.9 91.3 81.3 278.4
01/09 22:00 11.4 68 6.98 5.7 15 19 1013.1 0 16.2 24.0 34.5 90.3 80.0 273.9
01/09 21:30 11.5 67 6.92 5.6 17 22 1013.1 0 16.1 23.9 34.2 89.5 79.2 270.8
01/09 21:00 11.5 66 6.82 5.5 19 22 1013.1 0 15.9 23.7 33.8 88.5 77.9 266.3
01/09 20:30 11.4 66 6.78 5.3 19 24 1013.1 0 15.8 23.7 33.7 88.2 77.5 264.9
01/09 20:00 11.4 64 6.57 4.8 9 13 1013.1 0 15.4 23.3 32.9 86.1 74.8 255.6
01/09 19:30 11.2 63 6.39 4.4 9 13 1013.1 0 15.0 23.1 32.3 84.4 72.7 248.2
01/09 19:00 11.5 63 6.51 4.8 17 22 1013.1 0 15.2 23.2 32.6 85.3 74.0 252.6
01/09 18:30 12 61 6.5 4.7 24 39 1013.1 0 15.2 23.1 32.4 84.7 73.4 250.6
01/09 17:30 12.8 56 6.27 4.2 26 32 1013.1 0 14.7 22.5 31.2 81.6 69.8 238.1
01/09 17:00 13.5 51 5.97 3.6 24 28 1013.1 0 14.0 21.9 29.9 77.9 65.6 223.4
01/09 16:30 14.6 44 5.51 2.6 28 33 1013.1 0 13.0 21.0 27.8 72.5 59.3 201.5
01/09 16:00 15.5 42 5.55 2.9 30 37 1013.1 0 13.0 20.8 27.7 72.1 59.1 200.9
01/09 15:30 16 35 4.77 0.8 30 37 1013.1 0 11.4 19.7 24.9 64.6 50.0 168.9
01/09 15:00 16.2 35 4.83 1 32 43 1013.1 0 11.5 19.7 25.0 64.9 50.5 170.8
01/09 14:30 16.5 35 4.91 1 35 44 1013.1 0 11.7 19.7 25.2 65.4 51.2 173.3
01/09 14:00 16.5 37 5.2 1.7 24 35 1013.1 0 12.3 20.1 26.2 68.0 54.4 184.6
01/09 13:30 16.3 38 5.27 2.2 24 30 1013.1 0 12.4 20.3 26.5 68.8 55.4 187.8
01/09 13:00 16.4 40 5.58 2.9 33 41 1013.1 0 13.1 20.7 27.5 71.6 58.8 199.9
01/09 12:30 16.2 40 5.52 2.6 32 43 1013.1 0 13.0 20.6 27.3 71.2 58.2 198.0
01/09 12:00 15.8 43 5.79 3.4 37 44 1013.1 0 13.5 21.1 28.4 74.1 61.6 209.8
01/09 11:30 15.7 43 5.75 3.2 32 43 1013.1 0 13.5 21.1 28.3 73.8 61.2 208.5
01/09 11:00 15.6 43 5.72 3.1 37 54 1013.1 0 13.4 21.1 28.2 73.6 61.0 207.5
01/09 10:30 15.3 43 5.62 2.8 30 35 1013.1 0 13.2 21.0 28.0 72.9 60.0 204.2
01/09 10:00 14.9 39 4.97 1.2 32 39 1013.1 0 11.8 20.2 25.9 67.3 52.9 179.1
01/09 09:30 14.4 41 5.07 1.5 41 48 1013.1 0 12.1 20.4 26.4 68.6 54.4 184.2
01/09 09:00 14.1 43 5.22 1.8 33 43 1013.1 0 12.4 20.7 27.0 70.2 56.3 190.9
01/09 08:30 13.6 42 4.94 1.1 30 33 1013.1 0 11.8 20.4 26.2 68.1 53.4 180.7
01/09 08:00 12.8 47 5.26 1.8 30 35 1013.1 0 12.5 21.0 27.6 71.8 57.7 195.6
01/09 07:30 11.8 52 5.47 2.3 20 26 1013.1 0 13.0 21.6 28.7 74.7 60.9 206.9
01/09 07:00 10.3 57 5.46 2.1 4 9 1013.1 0 13.0 21.9 29.2 76.0 62.0 210.3
01/09 06:00 9.7 52 4.8 0.5 9 15 1013.1 0 11.6 21.1 27.0 70.1 54.4 183.7
01/09 05:30 8.2 54 4.52 -0.5 4 7 1013.1 0 11.1 21.0 26.4 68.6 52.0 175.2
01/09 05:00 6.6 61 4.61 -0.3 9 11 1013.1 0 11.3 21.5 27.3 70.9 54.2 182.6
01/09 04:30 2.8 82 4.81 0.1 6 7 1013.1 0 11.9 22.8 29.4 76.5 59.5 200.7
01/09 04:00 1.5 83 4.46 -1 4 9 1013.1 0 11.2 22.5 28.5 74.1 55.9 187.7
01/09 03:00 0.9 94 4.85 0.1 4 6 1013.1 0 12.0 23.3 30.3 78.9 61.5 207.5
01/09 02:30 1.4 92 4.91 0.2 0 2 1013.1 0 12.2 23.3 30.3 79.0 62.0 209.0
01/09 02:00 1.4 90 4.81 0 6 7 1013.1 0 11.9 23.1 29.9 77.9 60.6 204.3
01/09 01:30 1.8 92 5.05 0.7 2 4 1013.1 0 12.4 23.4 30.7 80.1 63.5 214.6
01/09 01:00 2 90 5.01 0.6 0 0 1013.1 0 12.4 23.3 30.5 79.5 62.8 212.1
01/09 00:30 2.7 92 5.37 1.5 0 0 1013.1 0 13.1 23.7 31.7 82.7 67.1 227.2
01/09 00:00 2.6 92 5.33 1.5 2 4 1013.1 0 13.0 23.7 31.6 82.4 66.6 225.6
31/08 23:30 3.5 90 5.54 2 2 4 1013.1 0 13.4 23.8 32.1 83.7 68.7 232.9
31/08 23:00 3.9 90 5.69 2.4 2 4 1013.1 0 13.8 23.9 32.5 84.9 70.3 238.8
31/08 22:30 4.5 87 5.72 2.5 6 7 1013.1 0 13.8 23.8 32.4 84.6 70.2 238.4
31/08 22:00 5.3 84 5.83 2.9 0 0 1013.1 0 14.0 23.8 32.5 84.9 70.9 241.1
31/08 21:30 5.6 83 5.87 3 4 6 1013.1 0 14.1 23.7 32.5 85.0 71.2 242.0
31/08 21:00 6.9 76 5.85 3 6 7 1013.1 0 14.0 23.4 31.9 83.4 69.7 237.1
31/08 20:30 7.7 73 5.92 3.2 7 9 1013.1 0 14.1 23.3 31.9 83.3 69.9 237.9
31/08 20:00 8.1 71 5.91 3.2 7 7 1013.1 0 14.1 23.2 31.7 82.8 69.4 236.3
31/08 19:30 9.7 66 6.09 3.7 7 9 1013.1 0 14.4 23.0 31.8 82.9 70.3 239.5
31/08 19:00 10.9 62 6.17 4 6 9 1013.1 0 14.5 22.8 31.6 82.5 70.3 239.5
31/08 18:30 12.6 56 6.2 4 0 2 1013.1 0 14.5 22.5 31.1 81.1 69.1 235.7
31/08 18:00 14.1 50 6.07 3.8 9 11 1013.1 0 14.2 21.9 30.0 78.3 66.3 225.9
31/08 17:30 14.5 48 5.97 3.8 7 11 1013.1 0 14.0 21.7 29.5 77.0 64.8 220.6
31/08 17:00 15.9 47 6.36 4.6 20 24 1013.1 0 14.7 21.9 30.4 79.3 68.2 232.9
31/08 16:30 16.9 42 6.04 4.1 22 26 1013.1 0 14.0 21.2 28.9 75.4 63.7 217.1
31/08 16:00 17.6 40 6 3.8 20 22 1013.1 0 13.9 21.0 28.5 74.4 62.6 213.6
31/08 15:30 17.9 38 5.8 3.6 20 22 1013.1 0 13.5 20.7 27.7 72.3 60.2 204.9

Last Refresh: 02-Sep-2026 19:16:08

Bureau of Meteorology